sensor_id;sensor_type;location;lat;lon;timestamp;P1;durP1;ratioP1;P2;durP2;ratioP2
63534;SDS011;55128;50.230;18.944;2023-08-20T00:00:22;16.90;;;15.40;;
63534;SDS011;55128;50.230;18.944;2023-08-20T00:05:23;17.23;;;15.55;;
63534;SDS011;55128;50.230;18.944;2023-08-20T00:10:23;18.92;;;17.23;;
63534;SDS011;55128;50.230;18.944;2023-08-20T00:15:24;18.13;;;16.43;;
63534;SDS011;55128;50.230;18.944;2023-08-20T00:20:27;17.40;;;15.80;;
63534;SDS011;55128;50.230;18.944;2023-08-20T00:25:29;18.35;;;16.73;;
63534;SDS011;55128;50.230;18.944;2023-08-20T00:30:29;18.52;;;16.85;;
63534;SDS011;55128;50.230;18.944;2023-08-20T00:35:30;18.75;;;16.88;;
63534;SDS011;55128;50.230;18.944;2023-08-20T00:40:30;17.30;;;15.80;;
63534;SDS011;55128;50.230;18.944;2023-08-20T00:45:31;17.65;;;15.98;;
63534;SDS011;55128;50.230;18.944;2023-08-20T00:50:32;18.38;;;16.67;;
63534;SDS011;55128;50.230;18.944;2023-08-20T00:55:33;19.75;;;17.90;;
63534;SDS011;55128;50.230;18.944;2023-08-20T01:00:33;19.52;;;17.52;;
63534;SDS011;55128;50.230;18.944;2023-08-20T01:05:36;19.00;;;17.23;;
63534;SDS011;55128;50.230;18.944;2023-08-20T01:10:51;19.08;;;17.38;;
63534;SDS011;55128;50.230;18.944;2023-08-20T01:15:57;18.77;;;16.97;;
63534;SDS011;55128;50.230;18.944;2023-08-20T01:21:02;20.42;;;18.60;;
63534;SDS011;55128;50.230;18.944;2023-08-20T01:26:20;19.13;;;17.38;;
63534;SDS011;55128;50.230;18.944;2023-08-20T01:31:26;20.33;;;18.38;;
63534;SDS011;55128;50.230;18.944;2023-08-20T01:36:27;21.63;;;19.45;;
63534;SDS011;55128;50.230;18.944;2023-08-20T01:41:28;21.13;;;19.13;;
63534;SDS011;55128;50.230;18.944;2023-08-20T01:46:28;20.13;;;18.08;;
63534;SDS011;55128;50.230;18.944;2023-08-20T01:51:28;19.37;;;17.47;;
63534;SDS011;55128;50.230;18.944;2023-08-20T01:56:29;20.30;;;18.30;;
63534;SDS011;55128;50.230;18.944;2023-08-20T02:01:29;20.37;;;18.47;;
63534;SDS011;55128;50.230;18.944;2023-08-20T02:06:29;21.57;;;19.47;;
63534;SDS011;55128;50.230;18.944;2023-08-20T02:11:30;20.97;;;19.03;;
63534;SDS011;55128;50.230;18.944;2023-08-20T02:16:33;21.73;;;19.65;;
63534;SDS011;55128;50.230;18.944;2023-08-20T02:21:33;21.35;;;19.17;;
63534;SDS011;55128;50.230;18.944;2023-08-20T02:26:34;19.27;;;17.38;;
63534;SDS011;55128;50.230;18.944;2023-08-20T02:31:34;20.50;;;18.70;;
63534;SDS011;55128;50.230;18.944;2023-08-20T02:36:34;20.98;;;19.08;;
63534;SDS011;55128;50.230;18.944;2023-08-20T02:41:35;22.17;;;20.07;;
63534;SDS011;55128;50.230;18.944;2023-08-20T02:46:36;20.42;;;18.52;;
63534;SDS011;55128;50.230;18.944;2023-08-20T02:51:38;21.77;;;19.77;;
63534;SDS011;55128;50.230;18.944;2023-08-20T02:56:38;20.70;;;18.70;;
63534;SDS011;55128;50.230;18.944;2023-08-20T03:01:38;20.93;;;18.83;;
63534;SDS011;55128;50.230;18.944;2023-08-20T03:06:39;21.42;;;19.33;;
63534;SDS011;55128;50.230;18.944;2023-08-20T03:11:39;20.05;;;17.92;;
63534;SDS011;55128;50.230;18.944;2023-08-20T03:16:40;22.07;;;19.60;;
63534;SDS011;55128;50.230;18.944;2023-08-20T03:21:40;21.08;;;18.98;;
63534;SDS011;55128;50.230;18.944;2023-08-20T03:26:40;20.70;;;18.70;;
63534;SDS011;55128;50.230;18.944;2023-08-20T03:31:41;20.92;;;19.02;;
63534;SDS011;55128;50.230;18.944;2023-08-20T03:36:41;21.30;;;19.20;;
63534;SDS011;55128;50.230;18.944;2023-08-20T03:41:42;20.77;;;18.88;;
63534;SDS011;55128;50.230;18.944;2023-08-20T03:46:42;22.45;;;20.35;;
63534;SDS011;55128;50.230;18.944;2023-08-20T03:51:42;22.33;;;20.00;;
63534;SDS011;55128;50.230;18.944;2023-08-20T03:56:43;21.03;;;19.03;;
63534;SDS011;55128;50.230;18.944;2023-08-20T04:01:43;23.13;;;20.77;;
63534;SDS011;55128;50.230;18.944;2023-08-20T04:06:43;22.00;;;20.00;;
63534;SDS011;55128;50.230;18.944;2023-08-20T04:11:43;21.48;;;19.48;;
63534;SDS011;55128;50.230;18.944;2023-08-20T04:16:44;22.47;;;20.03;;
63534;SDS011;55128;50.230;18.944;2023-08-20T04:21:44;21.73;;;19.75;;
63534;SDS011;55128;50.230;18.944;2023-08-20T04:26:44;22.17;;;20.17;;
63534;SDS011;55128;50.230;18.944;2023-08-20T04:31:45;22.25;;;19.98;;
63534;SDS011;55128;50.230;18.944;2023-08-20T04:36:45;24.83;;;22.43;;
63534;SDS011;55128;50.230;18.944;2023-08-20T04:41:45;23.80;;;21.60;;
63534;SDS011;55128;50.230;18.944;2023-08-20T04:46:46;23.20;;;20.95;;
63534;SDS011;55128;50.230;18.944;2023-08-20T04:51:46;24.07;;;21.87;;
63534;SDS011;55128;50.230;18.944;2023-08-20T04:56:46;24.25;;;22.10;;
63534;SDS011;55128;50.230;18.944;2023-08-20T05:01:47;27.15;;;24.75;;
63534;SDS011;55128;50.230;18.944;2023-08-20T05:06:47;25.50;;;23.10;;
63534;SDS011;55128;50.230;18.944;2023-08-20T05:11:48;22.70;;;20.73;;
63534;SDS011;55128;50.230;18.944;2023-08-20T05:16:48;21.17;;;19.20;;
63534;SDS011;55128;50.230;18.944;2023-08-20T05:21:49;20.13;;;18.33;;
63534;SDS011;55128;50.230;18.944;2023-08-20T05:27:02;19.23;;;17.53;;
63534;SDS011;55128;50.230;18.944;2023-08-20T05:32:09;17.27;;;15.77;;
63534;SDS011;55128;50.230;18.944;2023-08-20T05:37:10;18.38;;;16.33;;
63534;SDS011;55128;50.230;18.944;2023-08-20T05:42:10;16.90;;;15.33;;
63534;SDS011;55128;50.230;18.944;2023-08-20T05:47:11;16.55;;;15.13;;
63534;SDS011;55128;50.230;18.944;2023-08-20T05:52:11;17.02;;;15.60;;
63534;SDS011;55128;50.230;18.944;2023-08-20T05:57:14;15.07;;;13.77;;
63534;SDS011;55128;50.230;18.944;2023-08-20T06:02:18;14.48;;;13.27;;
63534;SDS011;55128;50.230;18.944;2023-08-20T06:07:33;14.30;;;13.10;;
63534;SDS011;55128;50.230;18.944;2023-08-20T06:13:02;14.05;;;12.68;;
63534;SDS011;55128;50.230;18.944;2023-08-20T06:18:37;13.05;;;11.93;;
63534;SDS011;55128;50.230;18.944;2023-08-20T06:23:56;13.10;;;11.93;;
63534;SDS011;55128;50.230;18.944;2023-08-20T06:29:26;11.32;;;10.32;;
63534;SDS011;55128;50.230;18.944;2023-08-20T06:34:50;13.32;;;11.07;;
63534;SDS011;55128;50.230;18.944;2023-08-20T06:39:57;11.43;;;10.43;;
63534;SDS011;55128;50.230;18.944;2023-08-20T06:45:07;12.75;;;11.60;;
63534;SDS011;55128;50.230;18.944;2023-08-20T06:50:29;12.57;;;11.13;;
63534;SDS011;55128;50.230;18.944;2023-08-20T06:56:14;11.32;;;10.23;;
63534;SDS011;55128;50.230;18.944;2023-08-20T07:01:55;10.20;;;9.18;;
63534;SDS011;55128;50.230;18.944;2023-08-20T07:07:29;10.63;;;9.70;;
63534;SDS011;55128;50.230;18.944;2023-08-20T07:12:34;10.82;;;9.82;;
63534;SDS011;55128;50.230;18.944;2023-08-20T07:17:48;10.07;;;9.27;;
63534;SDS011;55128;50.230;18.944;2023-08-20T07:23:14;9.32;;;8.45;;
63534;SDS011;55128;50.230;18.944;2023-08-20T07:28:29;10.10;;;9.18;;
63534;SDS011;55128;50.230;18.944;2023-08-20T07:33:50;10.60;;;9.63;;
63534;SDS011;55128;50.230;18.944;2023-08-20T07:38:58;9.35;;;8.65;;
63534;SDS011;55128;50.230;18.944;2023-08-20T07:44:15;9.52;;;8.70;;
63534;SDS011;55128;50.230;18.944;2023-08-20T07:49:33;9.82;;;9.02;;
63534;SDS011;55128;50.230;18.944;2023-08-20T07:54:44;8.38;;;7.68;;
63534;SDS011;55128;50.230;18.944;2023-08-20T07:59:59;8.50;;;7.80;;
63534;SDS011;55128;50.230;18.944;2023-08-20T08:05:20;9.00;;;8.25;;
63534;SDS011;55128;50.230;18.944;2023-08-20T08:10:57;8.95;;;8.25;;
63534;SDS011;55128;50.230;18.944;2023-08-20T08:16:03;8.20;;;7.50;;
63534;SDS011;55128;50.230;18.944;2023-08-20T08:21:17;8.27;;;7.57;;
63534;SDS011;55128;50.230;18.944;2023-08-20T08:26:50;7.95;;;7.25;;
63534;SDS011;55128;50.230;18.944;2023-08-20T08:32:28;7.22;;;6.63;;
63534;SDS011;55128;50.230;18.944;2023-08-20T08:37:56;7.75;;;7.05;;
63534;SDS011;55128;50.230;18.944;2023-08-20T08:43:30;7.93;;;7.30;;
63534;SDS011;55128;50.230;18.944;2023-08-20T08:49:13;7.90;;;7.28;;
63534;SDS011;55128;50.230;18.944;2023-08-20T08:54:43;6.60;;;6.00;;
63534;SDS011;55128;50.230;18.944;2023-08-20T08:59:55;8.68;;;7.20;;
63534;SDS011;55128;50.230;18.944;2023-08-20T09:05:19;6.47;;;5.88;;
63534;SDS011;55128;50.230;18.944;2023-08-20T09:10:51;6.72;;;6.15;;
63534;SDS011;55128;50.230;18.944;2023-08-20T09:16:25;6.28;;;5.78;;
63534;SDS011;55128;50.230;18.944;2023-08-20T09:21:58;7.22;;;6.53;;
63534;SDS011;55128;50.230;18.944;2023-08-20T09:27:30;7.00;;;6.50;;
63534;SDS011;55128;50.230;18.944;2023-08-20T09:38:09;7.18;;;6.57;;
63534;SDS011;55128;50.230;18.944;2023-08-20T09:43:45;7.00;;;6.40;;
63534;SDS011;55128;50.230;18.944;2023-08-20T09:49:26;7.40;;;6.78;;
63534;SDS011;55128;50.230;18.944;2023-08-20T10:00:17;7.75;;;7.03;;
63534;SDS011;55128;50.230;18.944;2023-08-20T10:05:50;7.15;;;6.50;;
63534;SDS011;55128;50.230;18.944;2023-08-20T10:11:01;8.43;;;7.60;;
63534;SDS011;55128;50.230;18.944;2023-08-20T10:16:26;8.55;;;7.82;;
63534;SDS011;55128;50.230;18.944;2023-08-20T10:21:43;8.77;;;8.07;;
63534;SDS011;55128;50.230;18.944;2023-08-20T10:32:46;8.93;;;7.68;;
63534;SDS011;55128;50.230;18.944;2023-08-20T10:43:29;7.72;;;7.03;;
63534;SDS011;55128;50.230;18.944;2023-08-20T10:48:53;7.82;;;7.13;;
63534;SDS011;55128;50.230;18.944;2023-08-20T10:54:06;8.48;;;7.68;;
63534;SDS011;55128;50.230;18.944;2023-08-20T10:59:57;9.25;;;7.97;;
63534;SDS011;55128;50.230;18.944;2023-08-20T11:05:17;7.10;;;6.50;;
63534;SDS011;55128;50.230;18.944;2023-08-20T11:10:34;7.13;;;6.53;;
63534;SDS011;55128;50.230;18.944;2023-08-20T11:15:50;7.10;;;6.60;;
63534;SDS011;55128;50.230;18.944;2023-08-20T11:21:16;7.05;;;6.45;;
63534;SDS011;55128;50.230;18.944;2023-08-20T11:26:30;7.20;;;6.50;;
63534;SDS011;55128;50.230;18.944;2023-08-20T11:31:47;6.60;;;6.10;;
63534;SDS011;55128;50.230;18.944;2023-08-20T11:37:03;6.75;;;6.25;;
63534;SDS011;55128;50.230;18.944;2023-08-20T11:42:08;6.95;;;6.35;;
63534;SDS011;55128;50.230;18.944;2023-08-20T11:47:16;7.45;;;6.85;;
63534;SDS011;55128;50.230;18.944;2023-08-20T11:52:33;7.53;;;6.93;;
63534;SDS011;55128;50.230;18.944;2023-08-20T11:57:59;6.72;;;6.13;;
63534;SDS011;55128;50.230;18.944;2023-08-20T12:03:21;7.05;;;6.35;;
63534;SDS011;55128;50.230;18.944;2023-08-20T12:08:45;7.93;;;7.20;;
63534;SDS011;55128;50.230;18.944;2023-08-20T12:14:18;8.43;;;7.60;;
63534;SDS011;55128;50.230;18.944;2023-08-20T12:19:32;9.10;;;8.23;;
63534;SDS011;55128;50.230;18.944;2023-08-20T12:24:59;7.72;;;7.13;;
63534;SDS011;55128;50.230;18.944;2023-08-20T12:30:22;8.63;;;7.82;;
63534;SDS011;55128;50.230;18.944;2023-08-20T12:35:48;8.45;;;7.60;;
63534;SDS011;55128;50.230;18.944;2023-08-20T12:41:24;7.05;;;6.30;;
63534;SDS011;55128;50.230;18.944;2023-08-20T12:46:48;7.70;;;7.00;;
63534;SDS011;55128;50.230;18.944;2023-08-20T12:51:54;8.75;;;7.95;;
63534;SDS011;55128;50.230;18.944;2023-08-20T12:57:10;9.38;;;7.65;;
63534;SDS011;55128;50.230;18.944;2023-08-20T13:02:20;8.27;;;7.57;;
63534;SDS011;55128;50.230;18.944;2023-08-20T13:07:30;8.30;;;7.50;;
63534;SDS011;55128;50.230;18.944;2023-08-20T13:12:50;8.73;;;7.38;;
63534;SDS011;55128;50.230;18.944;2023-08-20T13:18:25;8.07;;;7.38;;
63534;SDS011;55128;50.230;18.944;2023-08-20T13:23:46;7.88;;;7.28;;
63534;SDS011;55128;50.230;18.944;2023-08-20T13:29:04;8.63;;;7.32;;
63534;SDS011;55128;50.230;18.944;2023-08-20T13:34:10;7.88;;;7.18;;
63534;SDS011;55128;50.230;18.944;2023-08-20T13:39:21;8.02;;;7.18;;
63534;SDS011;55128;50.230;18.944;2023-08-20T13:44:41;7.80;;;7.10;;
63534;SDS011;55128;50.230;18.944;2023-08-20T13:49:57;7.20;;;6.50;;
63534;SDS011;55128;50.230;18.944;2023-08-20T13:55:20;8.03;;;6.83;;
63534;SDS011;55128;50.230;18.944;2023-08-20T14:00:35;7.68;;;6.97;;
63534;SDS011;55128;50.230;18.944;2023-08-20T14:05:49;7.38;;;6.78;;
63534;SDS011;55128;50.230;18.944;2023-08-20T14:11:05;6.97;;;6.38;;
63534;SDS011;55128;50.230;18.944;2023-08-20T14:17:14;6.70;;;6.10;;
63534;SDS011;55128;50.230;18.944;2023-08-20T14:22:40;7.22;;;6.63;;
63534;SDS011;55128;50.230;18.944;2023-08-20T14:27:52;7.45;;;6.80;;
63534;SDS011;55128;50.230;18.944;2023-08-20T14:33:41;7.35;;;6.68;;
63534;SDS011;55128;50.230;18.944;2023-08-20T14:44:32;7.55;;;6.95;;
63534;SDS011;55128;50.230;18.944;2023-08-20T14:49:58;7.68;;;6.97;;
63534;SDS011;55128;50.230;18.944;2023-08-20T14:55:08;7.43;;;6.75;;
63534;SDS011;55128;50.230;18.944;2023-08-20T15:00:23;6.18;;;5.65;;
63534;SDS011;55128;50.230;18.944;2023-08-20T15:05:24;6.60;;;6.00;;
63534;SDS011;55128;50.230;18.944;2023-08-20T15:10:41;6.13;;;5.10;;
63534;SDS011;55128;50.230;18.944;2023-08-20T15:16:07;6.43;;;5.80;;
63534;SDS011;55128;50.230;18.944;2023-08-20T15:21:07;7.07;;;6.47;;
63534;SDS011;55128;50.230;18.944;2023-08-20T15:26:08;6.72;;;6.13;;
63534;SDS011;55128;50.230;18.944;2023-08-20T15:31:08;6.97;;;6.37;;
63534;SDS011;55128;50.230;18.944;2023-08-20T15:36:08;7.17;;;6.43;;
63534;SDS011;55128;50.230;18.944;2023-08-20T15:41:09;7.50;;;6.80;;
63534;SDS011;55128;50.230;18.944;2023-08-20T15:46:09;7.97;;;7.17;;
63534;SDS011;55128;50.230;18.944;2023-08-20T15:51:09;7.03;;;6.33;;
63534;SDS011;55128;50.230;18.944;2023-08-20T15:56:10;7.37;;;6.67;;
63534;SDS011;55128;50.230;18.944;2023-08-20T16:01:10;7.10;;;6.50;;
63534;SDS011;55128;50.230;18.944;2023-08-20T16:06:11;8.48;;;6.90;;
63534;SDS011;55128;50.230;18.944;2023-08-20T16:11:12;7.38;;;6.78;;
63534;SDS011;55128;50.230;18.944;2023-08-20T16:16:12;6.87;;;6.37;;
63534;SDS011;55128;50.230;18.944;2023-08-20T16:21:13;6.95;;;6.25;;
63534;SDS011;55128;50.230;18.944;2023-08-20T16:26:14;6.25;;;5.75;;
63534;SDS011;55128;50.230;18.944;2023-08-20T16:31:14;7.43;;;6.73;;
63534;SDS011;55128;50.230;18.944;2023-08-20T16:36:15;15.83;;;12.60;;
63534;SDS011;55128;50.230;18.944;2023-08-20T16:41:15;14.30;;;10.52;;
63534;SDS011;55128;50.230;18.944;2023-08-20T16:46:15;9.20;;;7.27;;
63534;SDS011;55128;50.230;18.944;2023-08-20T16:51:16;7.20;;;6.53;;
63534;SDS011;55128;50.230;18.944;2023-08-20T16:56:16;7.00;;;6.40;;
63534;SDS011;55128;50.230;18.944;2023-08-20T17:01:16;8.90;;;7.20;;
63534;SDS011;55128;50.230;18.944;2023-08-20T17:06:17;8.27;;;7.00;;
63534;SDS011;55128;50.230;18.944;2023-08-20T17:11:17;7.45;;;6.85;;
63534;SDS011;55128;50.230;18.944;2023-08-20T17:16:17;7.63;;;6.93;;
63534;SDS011;55128;50.230;18.944;2023-08-20T17:21:17;8.30;;;7.60;;
63534;SDS011;55128;50.230;18.944;2023-08-20T17:26:18;10.40;;;9.50;;
63534;SDS011;55128;50.230;18.944;2023-08-20T17:31:18;10.03;;;9.13;;
63534;SDS011;55128;50.230;18.944;2023-08-20T17:36:19;11.17;;;9.97;;
63534;SDS011;55128;50.230;18.944;2023-08-20T17:41:19;8.13;;;7.43;;
63534;SDS011;55128;50.230;18.944;2023-08-20T17:46:19;11.35;;;9.02;;
63534;SDS011;55128;50.230;18.944;2023-08-20T17:51:19;9.57;;;8.73;;
63534;SDS011;55128;50.230;18.944;2023-08-20T17:56:20;10.75;;;9.75;;
63534;SDS011;55128;50.230;18.944;2023-08-20T18:01:20;10.23;;;8.73;;
63534;SDS011;55128;50.230;18.944;2023-08-20T18:06:20;12.18;;;10.98;;
63534;SDS011;55128;50.230;18.944;2023-08-20T18:11:21;34.33;;;30.90;;
63534;SDS011;55128;50.230;18.944;2023-08-20T18:16:21;31.70;;;28.13;;
63534;SDS011;55128;50.230;18.944;2023-08-20T18:21:21;14.13;;;12.83;;
63534;SDS011;55128;50.230;18.944;2023-08-20T18:26:22;11.40;;;10.40;;
63534;SDS011;55128;50.230;18.944;2023-08-20T18:31:22;10.38;;;9.48;;
63534;SDS011;55128;50.230;18.944;2023-08-20T18:36:23;13.70;;;12.30;;
63534;SDS011;55128;50.230;18.944;2023-08-20T18:41:23;19.27;;;17.37;;
63534;SDS011;55128;50.230;18.944;2023-08-20T18:46:23;15.73;;;13.40;;
63534;SDS011;55128;50.230;18.944;2023-08-20T18:51:24;11.50;;;10.50;;
63534;SDS011;55128;50.230;18.944;2023-08-20T18:56:25;11.23;;;10.02;;
63534;SDS011;55128;50.230;18.944;2023-08-20T19:01:25;11.43;;;10.52;;
63534;SDS011;55128;50.230;18.944;2023-08-20T19:06:25;11.17;;;10.27;;
63534;SDS011;55128;50.230;18.944;2023-08-20T19:11:26;12.50;;;11.23;;
63534;SDS011;55128;50.230;18.944;2023-08-20T19:16:26;12.45;;;11.35;;
63534;SDS011;55128;50.230;18.944;2023-08-20T19:21:26;13.43;;;11.83;;
63534;SDS011;55128;50.230;18.944;2023-08-20T19:26:27;12.13;;;11.05;;
63534;SDS011;55128;50.230;18.944;2023-08-20T19:31:27;12.23;;;11.00;;
63534;SDS011;55128;50.230;18.944;2023-08-20T19:36:27;11.57;;;10.57;;
63534;SDS011;55128;50.230;18.944;2023-08-20T19:41:28;11.95;;;10.77;;
63534;SDS011;55128;50.230;18.944;2023-08-20T19:46:28;13.00;;;11.70;;
63534;SDS011;55128;50.230;18.944;2023-08-20T19:51:28;12.70;;;11.50;;
63534;SDS011;55128;50.230;18.944;2023-08-20T19:56:29;13.27;;;11.67;;
63534;SDS011;55128;50.230;18.944;2023-08-20T20:01:29;13.82;;;12.63;;
63534;SDS011;55128;50.230;18.944;2023-08-20T20:06:30;13.07;;;11.90;;
63534;SDS011;55128;50.230;18.944;2023-08-20T20:11:30;16.37;;;14.97;;
63534;SDS011;55128;50.230;18.944;2023-08-20T20:16:31;12.73;;;11.63;;
63534;SDS011;55128;50.230;18.944;2023-08-20T20:21:32;13.98;;;12.68;;
63534;SDS011;55128;50.230;18.944;2023-08-20T20:26:32;13.90;;;12.47;;
63534;SDS011;55128;50.230;18.944;2023-08-20T20:31:34;13.93;;;12.55;;
63534;SDS011;55128;50.230;18.944;2023-08-20T20:36:34;22.85;;;20.42;;
63534;SDS011;55128;50.230;18.944;2023-08-20T20:41:34;16.53;;;14.93;;
63534;SDS011;55128;50.230;18.944;2023-08-20T20:46:35;14.75;;;13.45;;
63534;SDS011;55128;50.230;18.944;2023-08-20T20:51:35;13.90;;;12.50;;
63534;SDS011;55128;50.230;18.944;2023-08-20T20:56:35;14.45;;;13.15;;
63534;SDS011;55128;50.230;18.944;2023-08-20T21:01:36;15.07;;;13.50;;
63534;SDS011;55128;50.230;18.944;2023-08-20T21:06:36;14.50;;;13.10;;
63534;SDS011;55128;50.230;18.944;2023-08-20T21:11:36;15.50;;;13.90;;
63534;SDS011;55128;50.230;18.944;2023-08-20T21:16:37;14.48;;;13.10;;
63534;SDS011;55128;50.230;18.944;2023-08-20T21:21:39;14.93;;;13.63;;
63534;SDS011;55128;50.230;18.944;2023-08-20T21:26:40;15.20;;;13.60;;
63534;SDS011;55128;50.230;18.944;2023-08-20T21:31:41;15.20;;;13.55;;
63534;SDS011;55128;50.230;18.944;2023-08-20T21:36:41;15.57;;;14.07;;
63534;SDS011;55128;50.230;18.944;2023-08-20T21:41:41;16.20;;;14.47;;
63534;SDS011;55128;50.230;18.944;2023-08-20T21:46:42;15.40;;;13.90;;
63534;SDS011;55128;50.230;18.944;2023-08-20T21:51:42;15.83;;;14.43;;
63534;SDS011;55128;50.230;18.944;2023-08-20T21:56:47;15.77;;;13.95;;
63534;SDS011;55128;50.230;18.944;2023-08-20T22:01:50;15.63;;;14.07;;
63534;SDS011;55128;50.230;18.944;2023-08-20T22:06:50;17.02;;;15.52;;
63534;SDS011;55128;50.230;18.944;2023-08-20T22:11:51;15.13;;;13.63;;
63534;SDS011;55128;50.230;18.944;2023-08-20T22:16:52;15.70;;;14.35;;
63534;SDS011;55128;50.230;18.944;2023-08-20T22:21:52;16.30;;;14.77;;
63534;SDS011;55128;50.230;18.944;2023-08-20T22:26:53;15.30;;;13.93;;
63534;SDS011;55128;50.230;18.944;2023-08-20T22:31:53;16.37;;;14.93;;
63534;SDS011;55128;50.230;18.944;2023-08-20T22:36:54;17.00;;;15.50;;
63534;SDS011;55128;50.230;18.944;2023-08-20T22:41:54;16.45;;;14.75;;
63534;SDS011;55128;50.230;18.944;2023-08-20T22:46:54;16.48;;;14.95;;
63534;SDS011;55128;50.230;18.944;2023-08-20T22:51:55;16.48;;;14.85;;
63534;SDS011;55128;50.230;18.944;2023-08-20T22:56:55;16.73;;;14.93;;
63534;SDS011;55128;50.230;18.944;2023-08-20T23:01:56;15.68;;;14.18;;
63534;SDS011;55128;50.230;18.944;2023-08-20T23:06:56;15.50;;;13.90;;
63534;SDS011;55128;50.230;18.944;2023-08-20T23:11:57;15.52;;;14.23;;
63534;SDS011;55128;50.230;18.944;2023-08-20T23:16:57;16.03;;;14.63;;
63534;SDS011;55128;50.230;18.944;2023-08-20T23:21:57;16.40;;;14.80;;
63534;SDS011;55128;50.230;18.944;2023-08-20T23:26:59;15.95;;;14.45;;
63534;SDS011;55128;50.230;18.944;2023-08-20T23:31:59;15.65;;;14.25;;
63534;SDS011;55128;50.230;18.944;2023-08-20T23:37:00;16.27;;;14.85;;
63534;SDS011;55128;50.230;18.944;2023-08-20T23:42:00;15.85;;;14.50;;
63534;SDS011;55128;50.230;18.944;2023-08-20T23:47:03;16.10;;;14.70;;
63534;SDS011;55128;50.230;18.944;2023-08-20T23:52:03;16.50;;;15.10;;
63534;SDS011;55128;50.230;18.944;2023-08-20T23:57:04;15.75;;;14.35;;
